Time;durP1;ratioP1;P1;durP2;ratioP2;P2;SDS_P1;SDS_P2;PMS_P1;PMS_P2;Temp;Humidity;BMP_temperature;BMP_pressure;BME280_temperature;BME280_humidity;BME280_pressure;Samples;Min_cycle;Max_cycle;Signal;HPM_P1;HPM_P2
2023/06/24 00:01:51;;;;;;;21.27;7.82;;;26.80;99.90;;;;;;4955515;28;20055;-49
2023/06/24 00:04:18;;;;;;;21.38;7.57;;;26.80;99.90;;;;;;4955576;28;20098;-50
2023/06/24 00:06:44;;;;;;;15.00;5.47;;;26.80;99.90;;;;;;4951759;28;20023;-51
2023/06/24 00:09:10;;;;;;;13.35;5.65;;;26.70;99.90;;;;;;4954299;28;20026;-50
2023/06/24 00:11:36;;;;;;;18.15;7.93;;;26.70;99.90;;;;;;4952157;28;20062;-51
2023/06/24 00:14:02;;;;;;;22.35;9.20;;;26.70;99.90;;;;;;4935549;28;20035;-50
2023/06/24 00:16:28;;;;;;;26.50;14.77;;;26.80;99.90;;;;;;4950428;28;20031;-51
2023/06/24 00:19:00;;;;;;;19.23;8.52;;;26.70;99.90;;;;;;4954025;28;20054;-51
2023/06/24 00:21:29;;;;;;;15.60;6.78;;;26.70;99.90;;;;;;4942760;28;20031;-51
2023/06/24 00:24:04;;;;;;;14.30;6.07;;;26.70;99.90;;;;;;4951305;28;20029;-51
2023/06/24 00:26:31;;;;;;;14.13;6.28;;;26.70;99.90;;;;;;4962679;28;20026;-51
2023/06/24 00:28:58;;;;;;;17.85;7.25;;;26.70;99.90;;;;;;4949613;28;20030;-51
2023/06/24 00:31:24;;;;;;;16.85;5.50;;;26.70;99.90;;;;;;4948886;28;20069;-51
2023/06/24 00:33:52;;;;;;;15.55;5.75;;;26.60;99.90;;;;;;4951834;28;20026;-51
2023/06/24 00:36:17;;;;;;;12.85;5.10;;;26.70;99.90;;;;;;4955608;28;20055;-51
2023/06/24 00:38:43;;;;;;;12.43;4.63;;;26.60;99.90;;;;;;4958756;28;20028;-51
2023/06/24 00:41:10;;;;;;;13.35;5.75;;;26.60;99.90;;;;;;4950282;28;20070;-51
2023/06/24 00:43:36;;;;;;;17.13;5.38;;;26.60;99.90;;;;;;4951730;28;20522;-51
2023/06/24 00:46:02;;;;;;;14.43;6.35;;;26.60;99.90;;;;;;4947444;28;20035;-51
2023/06/24 00:48:28;;;;;;;14.45;5.32;;;26.60;99.90;;;;;;4957071;28;20150;-51
2023/06/24 00:50:54;;;;;;;14.65;6.13;;;26.60;99.90;;;;;;4951335;28;20059;-50
2023/06/24 00:53:24;;;;;;;14.90;5.28;;;26.50;99.90;;;;;;4948795;28;20436;-50
2023/06/24 00:55:52;;;;;;;13.85;4.88;;;26.50;99.90;;;;;;4958487;28;20036;-50
2023/06/24 00:58:20;;;;;;;13.98;5.40;;;26.50;99.90;;;;;;4962849;28;20054;-50
2023/06/24 01:00:48;;;;;;;11.90;5.07;;;26.50;99.90;;;;;;4949071;28;20055;-50
2023/06/24 01:03:13;;;;;;;20.67;5.20;;;26.50;99.90;;;;;;4956641;28;20023;-51
2023/06/24 01:05:44;;;;;;;17.85;4.63;;;26.50;99.90;;;;;;4956333;28;20039;-51
2023/06/24 01:08:15;;;;;;;21.83;6.45;;;26.50;99.90;;;;;;4952679;28;20023;-51
2023/06/24 01:10:44;;;;;;;15.20;5.80;;;26.50;99.90;;;;;;4952416;28;20035;-51
2023/06/24 01:13:09;;;;;;;11.88;4.38;;;26.40;99.90;;;;;;4955081;28;20477;-51
2023/06/24 01:15:36;;;;;;;15.75;4.57;;;26.50;99.90;;;;;;4959668;28;20094;-50
2023/06/24 01:18:42;;;;;;;13.48;5.18;;;26.50;99.90;;;;;;4954096;28;20027;-50
2023/06/24 01:21:22;;;;;;;13.40;4.82;;;26.40;99.90;;;;;;4952581;28;20042;-50
2023/06/24 01:23:53;;;;;;;12.10;4.30;;;26.40;99.90;;;;;;4966109;28;20497;-50
2023/06/24 01:26:47;;;;;;;20.40;4.32;;;26.40;99.90;;;;;;4961199;28;20056;-50
2023/06/24 01:29:48;;;;;;;9.73;4.18;;;26.40;99.90;;;;;;4950799;28;20066;-51
2023/06/24 01:32:38;;;;;;;16.75;5.40;;;26.40;99.90;;;;;;4958855;28;20020;-50
2023/06/24 01:35:20;;;;;;;15.32;4.63;;;26.30;99.90;;;;;;4953914;28;20027;-50
2023/06/24 01:37:51;;;;;;;12.15;4.40;;;26.30;99.90;;;;;;4958009;28;20433;-51
2023/06/24 01:40:40;;;;;;;14.05;4.63;;;26.30;99.90;;;;;;4958348;28;20074;-50
2023/06/24 01:43:08;;;;;;;13.48;5.03;;;26.30;99.90;;;;;;4950037;28;20091;-51
2023/06/24 01:45:49;;;;;;;10.80;4.80;;;26.30;99.90;;;;;;4944536;28;20102;-51
2023/06/24 01:48:27;;;;;;;11.80;4.50;;;26.30;99.90;;;;;;4935783;29;20074;-51
2023/06/24 01:51:00;;;;;;;15.32;4.60;;;26.30;99.90;;;;;;4937415;29;20138;-50
2023/06/24 01:53:33;;;;;;;22.23;6.05;;;26.30;99.90;;;;;;4937190;29;20030;-48
2023/06/24 01:56:01;;;;;;;17.73;4.65;;;26.30;99.90;;;;;;4937416;29;20241;-50
2023/06/24 01:58:29;;;;;;;13.35;4.78;;;26.30;99.90;;;;;;4937065;29;20106;-50
2023/06/24 02:00:57;;;;;;;10.85;4.35;;;26.40;99.90;;;;;;4946418;29;20058;-50
2023/06/24 02:03:23;;;;;;;;;;;26.40;99.90;;;;;;4941082;29;20032;-50
2023/06/24 02:05:50;;;;;;;12.88;4.00;;;26.50;99.90;;;;;;4937420;29;20363;-50
2023/06/24 02:08:17;;;;;;;13.98;4.82;;;26.50;99.90;;;;;;4949616;29;20030;-50
2023/06/24 02:10:45;;;;;;;10.65;4.10;;;26.50;99.90;;;;;;4936803;29;20028;-50
2023/06/24 02:13:12;;;;;;;15.68;4.75;;;26.50;99.90;;;;;;4937220;29;20027;-50
2023/06/24 02:15:39;;;;;;;10.68;4.28;;;26.60;99.90;;;;;;4949251;29;20039;-50
2023/06/24 02:18:06;;;;;;;10.73;4.18;;;26.60;99.90;;;;;;4936098;29;20032;-51
2023/06/24 02:20:32;;;;;;;12.25;4.05;;;26.60;99.90;;;;;;4936956;29;20039;-51
2023/06/24 02:22:59;;;;;;;11.80;4.25;;;26.70;99.90;;;;;;4936656;29;20055;-50
2023/06/24 02:25:26;;;;;;;13.73;4.53;;;26.70;99.90;;;;;;4937059;29;20051;-50
2023/06/24 02:27:53;;;;;;;13.53;4.00;;;26.70;99.90;;;;;;4949843;29;20059;-50
2023/06/24 02:30:21;;;;;;;7.40;3.55;;;26.70;99.90;;;;;;4949036;29;20098;-50
2023/06/24 02:32:47;;;;;;;11.50;3.90;;;26.80;99.90;;;;;;4936827;29;20182;-50
2023/06/24 02:35:13;;;;;;;11.48;3.88;;;26.80;99.90;;;;;;4936599;29;20626;-50
2023/06/24 02:37:39;;;;;;;10.88;3.50;;;26.80;99.90;;;;;;4936721;29;20035;-50
2023/06/24 02:40:07;;;;;;;9.32;4.03;;;26.80;99.90;;;;;;4936621;29;20027;-50
2023/06/24 02:42:33;;;;;;;9.07;3.40;;;26.80;99.90;;;;;;4936480;29;20064;-50
2023/06/24 02:44:59;;;;;;;10.63;4.28;;;26.80;99.90;;;;;;4939080;29;20114;-49
2023/06/24 02:47:26;;;;;;;8.87;3.10;;;26.80;99.90;;;;;;4946350;29;20469;-50
2023/06/24 02:49:54;;;;;;;7.72;3.88;;;26.90;99.90;;;;;;4935384;29;20384;-50
2023/06/24 02:52:20;;;;;;;;;;;26.90;99.90;;;;;;4945151;29;20488;-50
2023/06/24 02:54:46;;;;;;;9.77;3.45;;;26.90;99.90;;;;;;4940736;29;19954;-50
2023/06/24 02:57:15;;;;;;;10.43;3.80;;;26.90;99.90;;;;;;4959168;28;20078;-50
2023/06/24 02:59:41;;;;;;;10.70;3.67;;;26.90;99.90;;;;;;4954164;29;20031;-50
2023/06/24 03:02:08;;;;;;;8.93;4.30;;;26.90;99.90;;;;;;4955411;23;20115;-50
2023/06/24 03:04:35;;;;;;;9.38;3.53;;;26.90;99.90;;;;;;4949791;29;20031;-50
2023/06/24 03:07:02;;;;;;;8.40;3.20;;;26.90;99.90;;;;;;4942297;29;20016;-51
2023/06/24 03:09:28;;;;;;;13.30;3.70;;;26.90;99.90;;;;;;4942700;29;20020;-50
2023/06/24 03:11:54;;;;;;;9.75;3.67;;;26.90;99.90;;;;;;4940546;29;20019;-51
2023/06/24 03:14:19;;;;;;;8.63;3.38;;;26.90;99.90;;;;;;4944093;29;20032;-50
2023/06/24 03:16:45;;;;;;;15.73;3.50;;;26.90;99.90;;;;;;4934819;29;20035;-49
2023/06/24 03:19:11;;;;;;;11.38;3.97;;;26.90;99.90;;;;;;4934804;29;20118;-51
2023/06/24 03:21:37;;;;;;;10.32;3.60;;;26.90;99.90;;;;;;4935804;29;20059;-50
2023/06/24 03:24:02;;;;;;;14.50;3.60;;;26.90;99.90;;;;;;4935677;29;20020;-49
2023/06/24 03:26:35;;;;;;;9.70;3.92;;;26.90;99.90;;;;;;4947192;29;20038;-50
2023/06/24 03:29:02;;;;;;;12.38;3.67;;;26.90;99.90;;;;;;4934857;29;20353;-50
2023/06/24 03:31:27;;;;;;;7.85;3.20;;;26.90;99.90;;;;;;4950248;29;20433;-51
2023/06/24 03:33:53;;;;;;;13.55;3.75;;;26.90;99.90;;;;;;4943181;29;20042;-49
2023/06/24 03:36:19;;;;;;;9.57;3.35;;;26.90;99.90;;;;;;4953658;29;20039;-49
2023/06/24 03:38:45;;;;;;;8.50;3.55;;;26.90;99.90;;;;;;4940313;29;20032;-49
2023/06/24 03:41:11;;;;;;;6.53;2.80;;;26.90;99.90;;;;;;4942100;28;20039;-50
2023/06/24 03:43:37;;;;;;;6.88;3.63;;;26.90;99.90;;;;;;4947973;29;20016;-49
2023/06/24 03:46:03;;;;;;;10.77;3.45;;;26.90;99.90;;;;;;4946504;29;20028;-50
2023/06/24 03:48:29;;;;;;;15.65;5.25;;;26.80;99.90;;;;;;4954452;29;20071;-49
2023/06/24 03:50:54;;;;;;;15.50;5.28;;;26.90;99.90;;;;;;4943848;29;20027;-49
2023/06/24 03:53:20;;;;;;;11.00;3.90;;;26.90;99.90;;;;;;4939654;29;20023;-48
2023/06/24 03:55:46;;;;;;;9.32;3.53;;;26.80;99.90;;;;;;4942185;29;20052;-49
2023/06/24 03:58:13;;;;;;;11.45;3.40;;;26.80;99.90;;;;;;4936897;29;20043;-49
2023/06/24 04:00:40;;;;;;;9.63;3.58;;;26.80;99.90;;;;;;4954605;29;20059;-49
2023/06/24 04:03:09;;;;;;;10.82;3.85;;;26.80;99.90;;;;;;4941180;29;20074;-50
2023/06/24 04:05:35;;;;;;;12.02;3.83;;;26.80;99.90;;;;;;4935167;29;20048;-50
2023/06/24 04:08:00;;;;;;;10.20;3.30;;;26.80;99.90;;;;;;4933881;29;20058;-50
2023/06/24 04:10:26;;;;;;;11.55;3.55;;;26.90;99.90;;;;;;4941481;29;20487;-50
2023/06/24 04:12:52;;;;;;;9.52;3.55;;;26.90;99.90;;;;;;4940293;29;20034;-50
2023/06/24 04:15:18;;;;;;;9.13;3.60;;;26.80;99.90;;;;;;4940069;29;20400;-48
2023/06/24 04:17:44;;;;;;;9.80;3.03;;;26.80;99.90;;;;;;4942667;29;20384;-49
2023/06/24 04:20:10;;;;;;;7.43;2.65;;;26.90;99.90;;;;;;4939501;29;20042;-48
2023/06/24 04:22:41;;;;;;;9.57;2.85;;;26.80;99.90;;;;;;4944120;29;20357;-49
2023/06/24 04:25:08;;;;;;;7.65;2.90;;;26.90;99.90;;;;;;4947535;29;20491;-49
2023/06/24 04:27:35;;;;;;;8.25;3.13;;;26.90;99.90;;;;;;4934950;29;20030;-51
2023/06/24 04:30:02;;;;;;;5.82;3.20;;;26.90;99.90;;;;;;4939170;29;20016;-49
2023/06/24 04:32:28;;;;;;;8.18;3.72;;;26.90;99.90;;;;;;4942926;29;20040;-48
2023/06/24 04:34:54;;;;;;;8.57;2.85;;;26.90;99.90;;;;;;4934821;29;20035;-49
2023/06/24 04:37:19;;;;;;;5.00;2.60;;;26.90;99.90;;;;;;4944372;29;20031;-49
2023/06/24 04:39:46;;;;;;;7.97;3.30;;;26.90;99.90;;;;;;4951404;28;20049;-51
2023/06/24 04:42:12;;;;;;;7.70;2.88;;;26.90;99.90;;;;;;4938783;29;20027;-49
2023/06/24 04:44:37;;;;;;;8.27;3.20;;;26.90;99.90;;;;;;4940119;29;20035;-49
2023/06/24 04:47:03;;;;;;;7.32;3.90;;;26.90;99.90;;;;;;4938558;29;20051;-49
2023/06/24 04:49:29;;;;;;;8.90;3.70;;;26.90;99.90;;;;;;4949583;29;20051;-49
2023/06/24 04:51:55;;;;;;;7.70;3.38;;;26.90;99.90;;;;;;4940422;28;20473;-49
2023/06/24 04:54:21;;;;;;;6.93;3.40;;;27.00;99.90;;;;;;4938481;29;20462;-50
2023/06/24 04:56:48;;;;;;;8.07;3.47;;;27.00;99.90;;;;;;4938233;29;20036;-49
2023/06/24 04:59:14;;;;;;;9.20;3.20;;;27.00;99.90;;;;;;4938388;29;20027;-51
2023/06/24 05:01:40;;;;;;;4.90;2.92;;;27.00;99.90;;;;;;4937027;29;20043;-50
2023/06/24 05:04:05;;;;;;;6.70;3.15;;;27.00;99.90;;;;;;4938454;29;20030;-50
2023/06/24 05:06:31;;;;;;;7.35;3.60;;;27.00;99.90;;;;;;4938291;29;20063;-50
2023/06/24 05:08:57;;;;;;;7.05;3.05;;;27.00;99.90;;;;;;4937031;29;20020;-49
2023/06/24 05:11:23;;;;;;;7.47;2.90;;;27.00;99.90;;;;;;4938332;29;20361;-50
2023/06/24 05:13:48;;;;;;;6.93;3.15;;;27.00;99.90;;;;;;4950676;29;20476;-49
2023/06/24 05:16:14;;;;;;;10.98;3.00;;;27.00;99.90;;;;;;4949627;29;20401;-49
2023/06/24 05:18:40;;;;;;;10.07;3.67;;;27.00;99.90;;;;;;4939093;29;20513;-49
2023/06/24 05:21:06;;;;;;;5.88;2.50;;;26.90;99.90;;;;;;4949693;29;20062;-49
2023/06/24 05:23:31;;;;;;;6.97;3.13;;;26.90;99.90;;;;;;4953369;28;20020;-49
2023/06/24 05:25:57;;;;;;;7.13;3.45;;;26.90;99.90;;;;;;4938142;29;20074;-49
2023/06/24 05:28:23;;;;;;;12.32;3.72;;;26.90;99.90;;;;;;4938668;29;20028;-49
2023/06/24 05:30:49;;;;;;;8.00;2.72;;;27.00;99.90;;;;;;4948521;29;20019;-49
2023/06/24 05:33:14;;;;;;;6.97;2.45;;;26.90;99.90;;;;;;4937742;29;20032;-49
2023/06/24 05:35:43;;;;;;;7.20;3.00;;;26.90;99.90;;;;;;4944773;29;20024;-48
2023/06/24 05:38:09;;;;;;;5.93;2.50;;;26.90;99.90;;;;;;4943017;29;20028;-47
2023/06/24 05:40:34;;;;;;;5.25;2.92;;;26.90;99.90;;;;;;4937994;29;20034;-48
2023/06/24 05:43:00;;;;;;;5.20;2.92;;;27.00;99.90;;;;;;4949916;29;20027;-48
2023/06/24 05:45:26;;;;;;;4.88;2.53;;;27.00;99.90;;;;;;4937822;29;20024;-49
2023/06/24 05:47:52;;;;;;;6.20;3.03;;;27.00;99.90;;;;;;4937498;29;20023;-48
2023/06/24 05:50:18;;;;;;;7.03;2.70;;;27.00;99.90;;;;;;4937608;29;20421;-49
2023/06/24 05:52:44;;;;;;;7.43;2.70;;;27.00;99.90;;;;;;4936618;29;20028;-49
2023/06/24 05:55:09;;;;;;;5.05;2.35;;;27.00;99.90;;;;;;4938854;29;20015;-48
2023/06/24 05:57:36;;;;;;;4.40;2.38;;;27.00;99.90;;;;;;4956518;29;20027;-49
2023/06/24 06:00:03;;;;;;;5.45;2.58;;;27.00;99.90;;;;;;4940840;29;20059;-48
2023/06/24 06:02:30;;;;;;;6.70;2.80;;;27.00;99.90;;;;;;4945583;29;20392;-52
2023/06/24 06:04:56;;;;;;;7.38;2.95;;;27.00;99.90;;;;;;4954779;29;20031;-49
2023/06/24 06:07:21;;;;;;;5.63;2.97;;;27.00;99.90;;;;;;4937246;29;20041;-49
2023/06/24 06:09:47;;;;;;;4.40;2.63;;;27.00;99.90;;;;;;4948723;29;20480;-49
2023/06/24 06:12:13;;;;;;;5.22;2.65;;;27.00;99.90;;;;;;4943605;29;20369;-48
2023/06/24 06:14:39;;;;;;;7.30;2.75;;;27.00;99.90;;;;;;4943652;28;20046;-48
2023/06/24 06:17:05;;;;;;;6.72;2.42;;;27.10;99.90;;;;;;4955000;29;20030;-50
2023/06/24 06:19:30;;;;;;;6.15;2.33;;;27.10;99.90;;;;;;4944841;28;20107;-48
2023/06/24 06:21:56;;;;;;;5.70;2.55;;;27.10;99.90;;;;;;4951389;29;20107;-48
2023/06/24 06:24:22;;;;;;;4.78;3.15;;;27.10;99.90;;;;;;4937133;29;20059;-48
2023/06/24 06:26:48;;;;;;;8.88;2.45;;;27.10;99.90;;;;;;4936858;29;20039;-49
2023/06/24 06:29:13;;;;;;;7.68;3.33;;;27.10;99.90;;;;;;4936779;29;20023;-48
2023/06/24 06:31:39;;;;;;;6.63;3.10;;;27.10;99.90;;;;;;4936597;29;20023;-50
2023/06/24 06:34:05;;;;;;;7.75;2.92;;;27.10;99.90;;;;;;4936879;29;20020;-49
2023/06/24 06:36:31;;;;;;;7.03;2.65;;;27.20;99.90;;;;;;4937208;29;20110;-49
2023/06/24 06:38:57;;;;;;;7.80;3.45;;;27.20;99.90;;;;;;4935470;29;20020;-49
2023/06/24 06:41:24;;;;;;;7.53;2.92;;;27.20;99.90;;;;;;4936748;29;20083;-49
2023/06/24 06:43:50;;;;;;;;;;;27.20;99.90;;;;;;4935743;29;20075;-49
2023/06/24 06:46:16;;;;;;;5.88;3.00;;;27.20;99.90;;;;;;4936638;29;19907;-49
2023/06/24 06:48:42;;;;;;;5.20;2.85;;;27.30;99.90;;;;;;4936349;29;20032;-49
2023/06/24 06:51:07;;;;;;;9.50;2.88;;;27.30;99.90;;;;;;4936570;29;20028;-49
2023/06/24 06:53:33;;;;;;;8.90;3.00;;;27.20;99.90;;;;;;4936565;29;20107;-48
2023/06/24 06:55:59;;;;;;;5.75;2.80;;;27.30;99.90;;;;;;4946768;29;20035;-49
2023/06/24 06:58:25;;;;;;;5.30;2.88;;;27.30;99.90;;;;;;4941964;29;20038;-49
2023/06/24 07:00:50;;;;;;;5.68;2.67;;;27.30;99.90;;;;;;4944779;29;20051;-49
2023/06/24 07:03:16;;;;;;;6.55;2.60;;;27.30;99.90;;;;;;4938286;29;20380;-47
2023/06/24 07:05:42;;;;;;;7.60;2.58;;;27.30;99.90;;;;;;4946466;29;20035;-47
2023/06/24 07:08:08;;;;;;;7.07;2.22;;;27.30;99.90;;;;;;4936993;29;20099;-48
2023/06/24 07:10:34;;;;;;;4.35;2.10;;;27.30;99.90;;;;;;4955434;29;20106;-48
2023/06/24 07:13:00;;;;;;;5.70;2.50;;;27.30;99.90;;;;;;4940734;29;20079;-47
2023/06/24 07:15:26;;;;;;;5.63;2.53;;;27.30;99.90;;;;;;4942005;29;20051;-47
2023/06/24 07:17:53;;;;;;;4.93;2.75;;;27.30;99.90;;;;;;4953629;29;20055;-47
2023/06/24 07:20:19;;;;;;;6.20;3.10;;;27.30;99.90;;;;;;4935840;29;20070;-48
2023/06/24 07:22:45;;;;;;;5.13;2.50;;;27.30;99.90;;;;;;4935819;29;20258;-48
2023/06/24 07:25:11;;;;;;;5.07;2.42;;;27.30;99.90;;;;;;4935709;29;20103;-48
2023/06/24 07:27:36;;;;;;;4.82;3.08;;;27.40;99.90;;;;;;4934823;29;20051;-48
2023/06/24 07:30:04;;;;;;;5.20;2.63;;;27.40;99.90;;;;;;4934328;29;20055;-48
2023/06/24 07:32:29;;;;;;;5.95;2.47;;;27.40;99.90;;;;;;4934305;29;20480;-48
2023/06/24 07:34:55;;;;;;;7.32;2.67;;;27.40;99.90;;;;;;4935386;29;20075;-48
2023/06/24 07:37:21;;;;;;;9.95;2.75;;;27.40;99.90;;;;;;4934286;29;20051;-48
2023/06/24 07:39:47;;;;;;;6.03;2.38;;;27.50;99.90;;;;;;4949296;29;20039;-47
2023/06/24 07:42:18;;;;;;;5.20;2.38;;;27.40;99.90;;;;;;4934796;29;20046;-47
2023/06/24 07:44:50;;;;;;;7.85;2.20;;;27.50;99.90;;;;;;4936383;29;20055;-48
2023/06/24 07:47:18;;;;;;;4.50;2.58;;;27.50;99.90;;;;;;4948693;29;20027;-48
2023/06/24 07:49:44;;;;;;;8.07;2.92;;;27.50;99.90;;;;;;4935419;29;20055;-48
2023/06/24 07:52:10;;;;;;;7.90;2.72;;;27.50;99.90;;;;;;4935579;29;20024;-48
2023/06/24 07:54:36;;;;;;;6.97;2.80;;;27.60;99.90;;;;;;4946758;29;20424;-48
2023/06/24 07:57:02;;;;;;;5.20;2.15;;;27.50;99.90;;;;;;4936704;29;20417;-48
2023/06/24 07:59:28;;;;;;;5.57;3.10;;;27.50;99.90;;;;;;4933806;29;20062;-48
2023/06/24 08:01:54;;;;;;;5.57;2.15;;;27.60;99.90;;;;;;4947782;29;20074;-48
2023/06/24 08:04:19;;;;;;;7.53;2.10;;;27.60;99.90;;;;;;4944726;29;20022;-47
2023/06/24 08:06:46;;;;;;;8.38;2.63;;;27.60;99.90;;;;;;4939906;29;20075;-48
2023/06/24 08:09:12;;;;;;;4.55;2.35;;;27.60;99.90;;;;;;4946001;29;20058;-49
2023/06/24 08:11:38;;;;;;;5.50;2.45;;;27.60;99.90;;;;;;4949914;29;20063;-48
2023/06/24 08:14:04;;;;;;;4.55;2.35;;;27.70;99.90;;;;;;4945457;29;20047;-48
2023/06/24 08:16:29;;;;;;;8.65;2.53;;;27.60;99.90;;;;;;4934848;29;20066;-53
2023/06/24 08:18:55;;;;;;;3.45;2.35;;;27.60;99.90;;;;;;4935010;29;20088;-49
2023/06/24 08:21:21;;;;;;;5.43;2.38;;;27.70;99.90;;;;;;4933625;29;20040;-48
2023/06/24 08:23:49;;;;;;;4.55;2.58;;;27.70;99.90;;;;;;4935173;29;20016;-48
2023/06/24 08:26:15;;;;;;;3.90;2.17;;;27.70;99.90;;;;;;4934918;29;20087;-48
2023/06/24 08:28:41;;;;;;;5.57;2.72;;;27.70;99.90;;;;;;4947602;29;20495;-49
2023/06/24 08:31:07;;;;;;;4.57;2.20;;;27.70;99.90;;;;;;4935079;29;20036;-49
2023/06/24 08:33:33;;;;;;;5.13;2.30;;;27.70;99.90;;;;;;4939962;29;20023;-49
2023/06/24 08:35:59;;;;;;;5.43;2.45;;;27.70;99.90;;;;;;4942586;29;20583;-50
2023/06/24 08:38:24;;;;;;;10.32;2.25;;;27.70;99.90;;;;;;4949270;29;20031;-50
2023/06/24 08:40:50;;;;;;;3.88;2.47;;;27.80;99.90;;;;;;4934753;29;20043;-50
2023/06/24 08:43:16;;;;;;;4.80;2.33;;;27.80;99.90;;;;;;4934630;29;20027;-50
2023/06/24 08:45:42;;;;;;;4.15;1.95;;;27.80;99.90;;;;;;4941188;29;20027;-50
2023/06/24 08:48:08;;;;;;;6.75;2.50;;;27.80;99.90;;;;;;4954191;28;20108;-49
2023/06/24 08:50:50;;;;;;;4.28;2.35;;;27.80;99.90;;;;;;4953951;29;20372;-48
2023/06/24 08:53:18;;;;;;;4.70;2.05;;;27.80;99.90;;;;;;4940380;29;20388;-50
2023/06/24 08:55:44;;;;;;;;;;;27.80;99.90;;;;;;4935015;29;20067;-50
2023/06/24 08:58:10;;;;;;;3.40;1.88;;;27.80;99.90;;;;;;4935043;29;19993;-51
2023/06/24 09:00:36;;;;;;;3.85;2.42;;;27.90;99.90;;;;;;4949180;28;20532;-48
2023/06/24 09:03:02;;;;;;;8.27;2.30;;;27.90;99.90;;;;;;4934554;29;20030;-48
2023/06/24 09:05:28;;;;;;;4.30;2.22;;;27.90;99.90;;;;;;4934489;29;20016;-50
2023/06/24 09:07:54;;;;;;;4.15;2.20;;;27.90;99.90;;;;;;4934465;29;20024;-50
2023/06/24 09:10:33;;;;;;;4.72;1.92;;;27.90;99.90;;;;;;4934523;29;20033;-49
2023/06/24 09:13:03;;;;;;;7.88;2.33;;;27.90;99.90;;;;;;4928269;29;20031;-49
2023/06/24 09:15:33;;;;;;;6.55;2.70;;;27.90;99.90;;;;;;4935656;29;20028;-49
2023/06/24 09:18:00;;;;;;;3.45;1.95;;;27.90;99.90;;;;;;4934378;29;20120;-49
2023/06/24 09:20:27;;;;;;;8.70;2.45;;;28.00;99.90;;;;;;4950217;29;20038;-49
2023/06/24 09:22:58;;;;;;;5.25;2.53;;;28.00;99.90;;;;;;4942143;29;20424;-49
2023/06/24 09:25:24;;;;;;;5.03;2.97;;;28.00;99.90;;;;;;4938614;28;20484;-49
2023/06/24 09:27:52;;;;;;;6.22;2.22;;;27.90;99.90;;;;;;4946544;29;20039;-49
2023/06/24 09:30:19;;;;;;;;;;;28.00;99.90;;;;;;4938365;29;20114;-49
2023/06/24 09:32:45;;;;;;;3.85;2.10;;;28.00;99.90;;;;;;4936480;29;19907;-49
2023/06/24 09:35:11;;;;;;;3.85;2.08;;;28.00;99.90;;;;;;4953604;29;20083;-50
2023/06/24 09:37:38;;;;;;;8.10;2.30;;;28.00;99.90;;;;;;4956815;29;20102;-49
2023/06/24 09:40:05;;;;;;;4.40;2.13;;;28.00;99.90;;;;;;4942154;29;20058;-50
2023/06/24 09:42:32;;;;;;;4.25;2.08;;;28.10;99.90;;;;;;4937717;29;20016;-48
2023/06/24 09:44:57;;;;;;;4.90;2.20;;;28.10;99.90;;;;;;4937605;29;20024;-48
2023/06/24 09:47:27;;;;;;;6.72;2.40;;;28.10;99.90;;;;;;4937517;29;20050;-48
2023/06/24 09:49:54;;;;;;;6.05;2.15;;;28.10;99.90;;;;;;4949836;29;20027;-48
2023/06/24 09:52:21;;;;;;;5.13;2.10;;;28.10;99.90;;;;;;4937662;29;20023;-48
2023/06/24 09:54:50;;;;;;;4.65;1.98;;;28.20;99.90;;;;;;4937520;29;20476;-48
2023/06/24 09:57:20;;;;;;;6.38;2.22;;;28.20;99.90;;;;;;4937454;29;20023;-49
2023/06/24 09:59:46;;;;;;;4.32;1.77;;;28.20;99.90;;;;;;4937524;29;20024;-49
2023/06/24 10:02:15;;;;;;;4.63;2.15;;;28.20;99.90;;;;;;4950056;29;20087;-49
2023/06/24 10:04:41;;;;;;;3.40;2.03;;;28.20;99.90;;;;;;4949934;29;20086;-48
2023/06/24 10:07:07;;;;;;;4.50;2.15;;;28.20;99.90;;;;;;4943594;29;20463;-51
2023/06/24 10:09:33;;;;;;;3.35;1.63;;;28.20;99.90;;;;;;4945182;29;20103;-50
2023/06/24 10:12:00;;;;;;;5.85;2.72;;;28.20;99.90;;;;;;4936866;29;20052;-50
2023/06/24 10:14:25;;;;;;;4.60;2.03;;;28.30;99.90;;;;;;4935689;29;20023;-50
2023/06/24 10:16:51;;;;;;;4.35;2.15;;;28.30;99.90;;;;;;4949710;29;20492;-50
2023/06/24 10:19:23;;;;;;;4.25;2.85;;;28.30;99.90;;;;;;4943192;29;20024;-51
2023/06/24 10:21:54;;;;;;;5.15;2.30;;;28.30;99.90;;;;;;4943401;28;20509;-49
2023/06/24 10:24:33;;;;;;;5.65;2.38;;;28.30;99.90;;;;;;4948531;29;20020;-50
2023/06/24 10:27:21;;;;;;;3.30;2.22;;;28.30;99.90;;;;;;4952334;29;20023;-49
2023/06/24 10:29:52;;;;;;;4.30;2.13;;;28.30;99.90;;;;;;4947641;29;20026;-50
2023/06/24 10:32:21;;;;;;;4.25;2.10;;;28.40;99.90;;;;;;4937727;29;20095;-51
2023/06/24 10:34:48;;;;;;;7.82;2.15;;;28.50;99.90;;;;;;4937045;29;20024;-51
2023/06/24 10:37:23;;;;;;;2.90;2.15;;;28.50;99.90;;;;;;4935338;29;20407;-53
2023/06/24 10:39:57;;;;;;;3.47;2.03;;;28.50;99.90;;;;;;4936254;29;20099;-52
2023/06/24 10:42:26;;;;;;;5.20;2.28;;;28.60;99.90;;;;;;4936641;29;20495;-52
2023/06/24 10:44:53;;;;;;;4.25;1.42;;;28.60;99.90;;;;;;4938552;29;20034;-52
2023/06/24 10:47:19;;;;;;;5.45;2.10;;;28.60;99.90;;;;;;4955722;29;20094;-49
2023/06/24 10:49:45;;;;;;;6.38;1.95;;;28.70;99.90;;;;;;4955743;29;20035;-50
2023/06/24 10:52:12;;;;;;;7.07;2.03;;;28.70;99.90;;;;;;4955661;29;20023;-51
2023/06/24 10:54:39;;;;;;;6.00;1.70;;;28.70;99.90;;;;;;4948553;29;20039;-52
2023/06/24 10:57:07;;;;;;;4.28;1.90;;;28.70;99.90;;;;;;4946842;29;20054;-53
2023/06/24 10:59:39;;;;;;;3.13;2.00;;;28.70;99.90;;;;;;4955151;29;20035;-53
2023/06/24 11:02:04;;;;;;;5.18;2.30;;;28.80;99.90;;;;;;4953832;29;20051;-52
2023/06/24 11:04:30;;;;;;;2.70;1.70;;;28.80;99.90;;;;;;4938905;29;20064;-52
2023/06/24 11:07:00;;;;;;;8.48;2.58;;;28.80;99.90;;;;;;4936309;29;20035;-52
2023/06/24 11:09:26;;;;;;;5.25;3.25;;;28.80;99.90;;;;;;4935958;29;20030;-52
2023/06/24 11:11:52;;;;;;;4.28;2.45;;;28.80;99.90;;;;;;4939406;29;20098;-52
2023/06/24 11:14:20;;;;;;;3.10;1.88;;;28.80;99.90;;;;;;4946777;29;20448;-52
2023/06/24 11:16:46;;;;;;;5.07;2.53;;;28.90;99.90;;;;;;4936028;29;20473;-52
2023/06/24 11:19:11;;;;;;;4.88;2.00;;;29.00;99.90;;;;;;4935879;29;20087;-51
2023/06/24 11:21:37;;;;;;;6.53;2.00;;;29.00;99.90;;;;;;4942698;29;20027;-51
2023/06/24 11:24:04;;;;;;;4.50;2.60;;;29.00;99.90;;;;;;4942006;28;20030;-52
2023/06/24 11:26:30;;;;;;;5.60;2.47;;;29.00;99.90;;;;;;4955072;29;20023;-51
2023/06/24 11:28:56;;;;;;;4.68;1.98;;;29.00;99.90;;;;;;4943031;29;20028;-50
2023/06/24 11:31:25;;;;;;;3.17;2.13;;;29.00;99.90;;;;;;4935617;29;20016;-51
2023/06/24 11:33:51;;;;;;;5.15;2.72;;;29.10;99.90;;;;;;4935762;29;20043;-51
2023/06/24 11:36:20;;;;;;;3.20;2.55;;;29.10;99.90;;;;;;4935552;29;20024;-49
2023/06/24 11:38:47;;;;;;;5.50;2.33;;;29.10;99.90;;;;;;4947484;29;20428;-49
2023/06/24 11:41:13;;;;;;;3.90;2.53;;;29.10;99.90;;;;;;4950875;29;20035;-51
2023/06/24 11:43:44;;;;;;;6.93;2.78;;;29.10;99.90;;;;;;4945237;29;20022;-51
2023/06/24 11:46:20;;;;;;;5.40;2.35;;;29.10;99.90;;;;;;4943527;29;20024;-49
2023/06/24 11:48:45;;;;;;;7.10;2.42;;;29.10;99.90;;;;;;4934926;29;20505;-52
2023/06/24 11:51:15;;;;;;;5.65;3.85;;;29.20;99.90;;;;;;4934999;29;20044;-48
2023/06/24 11:53:43;;;;;;;9.48;4.35;;;29.20;99.90;;;;;;4935359;29;20364;-49
2023/06/24 11:56:09;;;;;;;6.60;3.70;;;29.20;99.90;;;;;;4935240;29;20047;-50
2023/06/24 11:58:35;;;;;;;6.75;2.83;;;29.20;99.90;;;;;;4935275;29;20032;-49
2023/06/24 12:01:01;;;;;;;6.07;2.35;;;29.20;99.90;;;;;;4946373;29;20047;-48
2023/06/24 12:03:34;;;;;;;6.00;3.03;;;29.20;99.90;;;;;;4936065;29;20023;-49
2023/06/24 12:06:00;;;;;;;4.28;2.33;;;29.20;99.90;;;;;;4935189;29;20028;-49
2023/06/24 12:08:26;;;;;;;5.05;2.70;;;29.20;99.90;;;;;;4935096;29;20499;-49
2023/06/24 12:10:52;;;;;;;4.10;2.47;;;29.20;99.90;;;;;;4935249;29;20027;-49
2023/06/24 12:13:18;;;;;;;6.28;2.72;;;29.20;99.90;;;;;;4935190;29;20036;-50
2023/06/24 12:15:44;;;;;;;4.38;2.10;;;29.20;99.90;;;;;;4934616;29;20078;-49
2023/06/24 12:18:11;;;;;;;6.20;2.33;;;29.20;99.90;;;;;;4933749;29;20066;-50
2023/06/24 12:20:37;;;;;;;4.93;2.63;;;29.30;99.90;;;;;;4934895;29;20039;-48
2023/06/24 12:23:06;;;;;;;6.03;2.45;;;29.30;99.90;;;;;;4934979;29;20040;-48
2023/06/24 12:25:32;;;;;;;5.13;2.40;;;29.30;99.90;;;;;;4933846;29;20024;-48
2023/06/24 12:28:00;;;;;;;9.23;3.13;;;29.30;99.90;;;;;;4933615;29;20503;-49
2023/06/24 12:30:27;;;;;;;4.80;2.63;;;29.30;99.90;;;;;;4934954;29;20043;-50
2023/06/24 12:32:52;;;;;;;6.35;2.80;;;29.20;99.90;;;;;;4940620;29;20110;-47
2023/06/24 12:35:18;;;;;;;4.30;2.65;;;29.30;99.90;;;;;;4933506;29;20444;-50
2023/06/24 12:37:45;;;;;;;3.22;2.22;;;29.20;99.90;;;;;;4934985;29;20103;-48
2023/06/24 12:40:11;;;;;;;5.05;2.70;;;29.30;99.90;;;;;;4934690;29;20036;-49
2023/06/24 12:42:37;;;;;;;5.35;2.65;;;29.20;99.90;;;;;;4946503;29;20047;-50
2023/06/24 12:45:03;;;;;;;6.05;2.53;;;29.30;99.90;;;;;;4944374;29;20035;-48
2023/06/24 12:47:29;;;;;;;9.55;2.78;;;29.20;99.90;;;;;;4933616;29;20032;-49